Time;durP1;ratioP1;P1;durP2;ratioP2;P2;SDS_P1;SDS_P2;PMS_P1;PMS_P2;Temp;Humidity;BMP_temperature;BMP_pressure;BME280_temperature;BME280_humidity;BME280_pressure;Samples;Min_cycle;Max_cycle;Signal;HPM_P1;HPM_P2
2022/08/04 00:05:15;;;;;;;0.45;0.20;;;;;;;24.68;45.43;101155.16;16144866;19;129671;-63
2022/08/04 00:10:38;;;;;;;2.13;0.30;;;;;;;24.68;45.59;101153.16;16136551;19;130371;-59
2022/08/04 00:16:06;;;;;;;1.85;0.60;;;;;;;24.68;45.29;101149.56;16135047;19;129307;-59
2022/08/04 00:21:30;;;;;;;2.33;0.50;;;;;;;24.67;45.52;101148.72;16134756;19;129570;-58
2022/08/04 00:26:53;;;;;;;1.23;0.27;;;;;;;24.68;45.65;101138.34;16132379;19;130419;-58
2022/08/04 00:32:17;;;;;;;1.42;0.30;;;;;;;24.67;45.41;101134.75;16127394;19;129219;-59
2022/08/04 00:37:55;;;;;;;0.35;0.20;;;;;;;24.66;45.52;101130.25;16135211;19;129557;-58
2022/08/04 00:43:27;;;;;;;0.50;0.20;;;;;;;24.66;45.48;101123.81;16136157;19;130553;-60
2022/08/04 00:49:13;;;;;;;1.05;0.40;;;;;;;24.67;45.23;101111.50;16137980;19;130088;-59
2022/08/04 00:54:47;;;;;;;0.68;0.17;;;;;;;24.66;45.40;101115.41;16135576;19;129032;-58
2022/08/04 01:00:12;;;;;;;0.95;0.40;;;;;;;24.64;45.48;101118.50;16143343;19;128952;-58
2022/08/04 01:06:16;;;;;;;0.85;0.30;;;;;;;24.65;45.46;101124.94;16139942;19;129451;-58
2022/08/04 01:11:43;;;;;;;0.85;0.30;;;;;;;24.65;45.60;101122.13;16132866;19;129176;-58
2022/08/04 01:17:23;;;;;;;0.32;0.30;;;;;;;24.64;45.31;101117.66;16131883;19;130329;-58
2022/08/04 01:23:07;;;;;;;1.85;0.20;;;;;;;24.64;45.21;101112.06;16131868;19;129617;-59
2022/08/04 01:28:45;;;;;;;0.60;0.30;;;;;;;24.65;45.07;101102.56;16125512;19;131295;-58
2022/08/04 01:34:12;;;;;;;1.67;0.30;;;;;;;24.62;45.29;101109.56;16155550;19;130587;-58
2022/08/04 01:39:41;;;;;;;1.37;0.50;;;;;;;24.62;45.26;101098.38;16215344;19;129621;-59
2022/08/04 01:45:07;;;;;;;1.77;0.30;;;;;;;24.62;45.15;101098.38;16219039;19;128189;-59
2022/08/04 01:50:37;;;;;;;0.63;0.30;;;;;;;24.62;45.50;101095.56;16218139;19;128665;-57
2022/08/04 01:56:01;;;;;;;2.15;0.60;;;;;;;24.62;45.18;101095.56;16217447;19;128516;-57
2022/08/04 02:01:23;;;;;;;1.75;0.50;;;;;;;24.61;45.19;101109.84;16217435;19;129271;-60
2022/08/04 02:07:10;;;;;;;1.50;0.77;;;;;;;24.63;45.21;101116.84;16214585;19;128431;-57
2022/08/04 02:12:51;;;;;;;0.93;0.47;;;;;;;24.61;45.42;101104.25;16198927;19;129002;-60
2022/08/04 02:18:45;;;;;;;1.55;0.60;;;;;;;24.61;45.18;101107.88;16204464;19;129087;-62
2022/08/04 02:24:11;;;;;;;0.98;0.50;;;;;;;24.60;45.37;101106.19;16199235;19;129817;-59
2022/08/04 02:29:42;;;;;;;0.35;0.35;;;;;;;24.60;45.05;101105.38;16193650;19;129015;-62
2022/08/04 02:35:26;;;;;;;1.35;0.40;;;;;;;24.60;45.42;101110.97;16203611;19;128266;-59
2022/08/04 02:40:50;;;;;;;0.95;0.40;;;;;;;24.61;45.23;101112.66;16173956;19;129239;-64
2022/08/04 02:46:12;;;;;;;2.10;0.57;;;;;;;24.58;45.37;101109.28;16154915;19;129984;-66
2022/08/04 02:51:45;;;;;;;0.55;0.40;;;;;;;24.60;45.33;101094.19;16153295;19;130008;-64
2022/08/04 02:57:11;;;;;;;1.23;0.50;;;;;;;24.59;45.23;101104.53;16152554;19;131089;-67
2022/08/04 03:03:01;;;;;;;1.50;0.63;;;;;;;24.59;45.29;101098.94;16152319;19;129088;-68
2022/08/04 03:08:38;;;;;;;0.85;0.50;;;;;;;24.57;45.03;101095.56;16154100;19;128844;-66
2022/08/04 03:14:21;;;;;;;1.67;0.60;;;;;;;24.57;45.54;101087.19;16152198;19;129088;-67
2022/08/04 03:20:04;;;;;;;0.98;0.55;;;;;;;24.56;45.26;101072.38;16145473;19;130518;-68
2022/08/04 03:25:47;;;;;;;0.82;0.47;;;;;;;24.56;45.31;101066.78;16151383;19;129876;-63
2022/08/04 03:31:48;;;;;;;1.00;0.50;;;;;;;24.55;45.14;101062.31;16147323;19;129954;-65
2022/08/04 03:37:27;;;;;;;1.05;0.57;;;;;;;24.52;45.04;101082.44;16149713;19;130429;-67
2022/08/04 03:43:04;;;;;;;0.80;0.55;;;;;;;24.52;45.37;101076.84;16150786;19;129714;-68
2022/08/04 03:48:34;;;;;;;2.67;0.68;;;;;;;24.53;45.21;101077.69;16144770;19;129570;-70
2022/08/04 03:54:21;;;;;;;1.17;0.50;;;;;;;24.54;45.42;101073.78;16140528;19;129691;-59
2022/08/04 04:00:21;;;;;;;1.65;0.75;;;;;;;24.52;45.14;101096.44;16143642;19;129761;-59
2022/08/04 04:06:11;;;;;;;6.10;0.68;;;;;;;24.54;45.14;101096.16;16133372;19;129624;-58
2022/08/04 04:11:41;;;;;;;1.13;0.70;;;;;;;24.52;45.29;101110.41;16138162;19;130431;-59
2022/08/04 04:17:27;;;;;;;0.77;0.60;;;;;;;24.51;45.36;101105.94;16130732;19;129565;-59
2022/08/04 04:23:27;;;;;;;1.42;0.70;;;;;;;24.52;45.14;101098.41;16139832;19;129110;-59
2022/08/04 04:28:51;;;;;;;1.17;0.60;;;;;;;24.50;45.36;101100.63;16134293;19;129186;-59
2022/08/04 04:34:42;;;;;;;1.20;0.70;;;;;;;24.52;45.36;101095.59;16136004;19;130156;-59
2022/08/04 04:40:26;;;;;;;1.45;0.73;;;;;;;24.51;45.43;101096.72;16143554;19;129536;-59
2022/08/04 04:45:59;;;;;;;1.92;0.80;;;;;;;24.50;45.19;101109.03;16143718;19;129793;-59
2022/08/04 04:51:32;;;;;;;1.83;1.00;;;;;;;24.49;45.36;101111.00;16140422;19;129123;-58
2022/08/04 04:57:13;;;;;;;2.53;1.00;;;;;;;24.50;45.11;101100.63;16144154;19;129455;-58
2022/08/04 05:03:16;;;;;;;2.53;1.02;;;;;;;24.48;45.53;101097.28;16143163;19;130382;-59
2022/08/04 05:08:56;;;;;;;4.10;0.80;;;;;;;24.48;45.17;101103.72;16133569;19;129599;-58
2022/08/04 05:14:30;;;;;;;3.08;0.80;;;;;;;24.48;45.16;101106.53;16131668;19;131108;-59
2022/08/04 05:20:18;;;;;;;12.63;1.90;;;;;;;24.45;45.35;101107.06;16131685;19;130074;-59
2022/08/04 05:25:48;;;;;;;6.40;1.85;;;;;;;24.43;45.38;101117.69;16133105;19;131845;-58
2022/08/04 05:31:28;;;;;;;5.40;1.70;;;;;;;24.41;45.51;101112.41;16128138;19;129176;-58
2022/08/04 05:36:54;;;;;;;30.80;2.20;;;;;;;24.42;45.40;101121.63;16132400;19;129474;-58
2022/08/04 05:42:16;;;;;;;6.07;1.90;;;;;;;24.41;45.34;101125.53;16139078;19;131033;-58
2022/08/04 05:47:38;;;;;;;5.22;1.95;;;;;;;24.39;45.47;101128.63;16136974;19;130148;-58
2022/08/04 05:53:01;;;;;;;7.10;1.80;;;;;;;24.42;45.42;101141.19;16137205;19;129441;-58
2022/08/04 05:58:24;;;;;;;6.47;1.80;;;;;;;24.41;45.22;101133.91;16140555;19;130636;-58
2022/08/04 06:03:48;;;;;;;11.48;2.03;;;;;;;24.43;45.28;101142.88;16140153;19;129346;-58
2022/08/04 06:09:10;;;;;;;6.73;1.90;;;;;;;24.41;45.28;101137.56;16134414;19;129639;-58
2022/08/04 06:14:40;;;;;;;6.05;1.95;;;;;;;24.42;45.23;101152.38;16138898;19;129350;-58
2022/08/04 06:20:05;;;;;;;8.75;2.17;;;;;;;24.41;45.36;101148.75;16138348;19;129204;-58
2022/08/04 06:25:46;;;;;;;10.00;2.25;;;;;;;24.42;45.69;101141.19;16140449;19;129706;-59
2022/08/04 06:31:10;;;;;;;6.20;2.05;;;;;;;24.42;45.32;101144.00;16132740;19;129904;-59
2022/08/04 06:36:52;;;;;;;9.07;1.98;;;;;;;24.43;45.22;101156.84;16137863;19;130239;-59
2022/08/04 06:42:16;;;;;;;7.18;1.83;;;;;;;24.45;45.45;101165.81;16137406;19;129590;-59
2022/08/04 06:47:44;;;;;;;6.15;1.73;;;;;;;24.45;45.72;101165.81;16136078;19;130373;-59
2022/08/04 06:53:06;;;;;;;6.57;1.40;;;;;;;24.46;45.08;101166.63;16134074;19;130248;-59
2022/08/04 06:58:31;;;;;;;4.95;1.55;;;;;;;24.48;45.46;101182.03;16138720;19;130386;-59
2022/08/04 07:03:53;;;;;;;4.68;1.20;;;;;;;24.48;45.27;101179.22;16135137;19;129242;-59
2022/08/04 07:09:15;;;;;;;5.45;1.23;;;;;;;24.50;45.57;101174.16;16133665;19;128999;-59
2022/08/04 07:14:39;;;;;;;4.25;1.60;;;;;;;24.51;45.34;101181.44;16137858;19;129414;-59
2022/08/04 07:20:03;;;;;;;3.65;1.20;;;;;;;24.51;45.22;101184.25;16135702;19;129112;-58
2022/08/04 07:25:25;;;;;;;2.37;0.90;;;;;;;24.52;45.03;101169.16;16136611;19;129885;-59
2022/08/04 07:31:16;;;;;;;3.15;0.82;;;;;;;24.55;45.26;101168.59;16130031;19;129901;-59
2022/08/04 07:36:57;;;;;;;4.07;1.02;;;;;;;24.56;45.33;101177.81;16134082;19;132482;-59
2022/08/04 07:42:20;;;;;;;5.88;1.27;;;;;;;24.56;45.12;101189.84;16132584;19;129820;-59
2022/08/04 07:47:42;;;;;;;4.22;0.90;;;;;;;24.57;45.14;101196.25;16132839;19;130130;-59
2022/08/04 07:53:25;;;;;;;2.85;1.10;;;;;;;24.58;45.05;101210.00;16132657;19;129345;-59
2022/08/04 07:59:08;;;;;;;3.33;0.80;;;;;;;24.60;44.93;101198.50;16149608;19;129365;-59
2022/08/04 08:04:30;;;;;;;2.35;0.80;;;;;;;24.58;45.34;101204.41;16149645;19;129159;-59
2022/08/04 08:09:52;;;;;;;4.82;1.15;;;;;;;24.62;45.35;101210.25;16145465;19;129752;-58
2022/08/04 08:15:14;;;;;;;6.78;1.33;;;;;;;24.63;45.69;101223.13;16147409;19;129606;-58
2022/08/04 08:20:36;;;;;;;5.93;0.93;;;;;;;24.66;45.44;101230.13;16147047;19;130348;-58
2022/08/04 08:25:58;;;;;;;7.00;1.60;;;;;;;24.67;45.54;101226.19;16148108;19;129696;-58
2022/08/04 08:31:20;;;;;;;5.03;1.33;;;;;;;24.68;45.44;101231.50;16140812;19;129152;-58
2022/08/04 08:37:27;;;;;;;4.40;0.80;;;;;;;24.70;45.72;101234.88;16145231;19;129584;-58
2022/08/04 08:43:09;;;;;;;3.75;1.00;;;;;;;24.71;45.77;101235.72;16142532;19;130133;-58
2022/08/04 08:49:25;;;;;;;4.35;0.90;;;;;;;24.72;45.82;101259.78;16142424;19;130191;-57
2022/08/04 08:55:18;;;;;;;5.63;1.00;;;;;;;24.72;45.80;101279.38;16149878;19;129209;-59
2022/08/04 09:01:30;;;;;;;3.75;0.65;;;;;;;24.71;46.11;101283.28;16154416;19;129316;-58
2022/08/04 09:07:19;;;;;;;4.82;1.02;;;;;;;24.71;45.86;101275.72;16152097;19;129743;-58
2022/08/04 09:13:23;;;;;;;3.75;0.95;;;;;;;24.70;46.11;101245.22;16146589;19;129392;-58
2022/08/04 09:19:03;;;;;;;5.30;1.08;;;;;;;24.67;45.94;101240.19;16143398;19;129462;-59
2022/08/04 09:24:44;;;;;;;3.40;1.00;;;;;;;24.68;46.17;101258.66;16139096;19;129391;-59
2022/08/04 09:30:09;;;;;;;7.53;1.13;;;;;;;24.68;46.13;101309.00;16140953;19;129499;-58
2022/08/04 09:35:47;;;;;;;5.60;0.90;;;;;;;24.69;46.21;101305.09;16141652;19;129408;-58
2022/08/04 09:41:29;;;;;;;2.63;0.90;;;;;;;24.68;46.55;101325.78;16140899;19;129100;-57
2022/08/04 09:47:25;;;;;;;6.18;1.08;;;;;;;24.67;46.26;101301.72;16139863;19;129209;-58
2022/08/04 09:53:13;;;;;;;4.20;1.02;;;;;;;24.67;46.57;101285.81;16137096;19;129440;-57
2022/08/04 09:59:00;;;;;;;3.58;1.30;;;;;;;24.64;46.54;101247.19;16140355;19;129249;-61
2022/08/04 10:04:24;;;;;;;3.28;0.88;;;;;;;24.65;46.64;101264.81;16135811;19;129104;-63
2022/08/04 10:09:54;;;;;;;3.67;1.37;;;;;;;24.65;46.52;101278.78;16134361;19;128855;-60
2022/08/04 10:15:21;;;;;;;3.58;0.80;;;;;;;24.64;46.47;101300.34;16138288;19;128970;-60
2022/08/04 10:21:00;;;;;;;3.92;1.38;;;;;;;24.65;46.65;101309.56;16139821;19;129770;-63
2022/08/04 10:27:00;;;;;;;3.92;1.10;;;;;;;24.66;47.08;101289.72;16139845;19;130034;-61
2022/08/04 10:32:24;;;;;;;8.68;0.90;;;;;;;24.68;46.89;101292.22;16138179;19;132027;-58
2022/08/04 10:38:07;;;;;;;4.23;1.17;;;;;;;24.70;47.07;101262.84;16138224;19;129823;-59
2022/08/04 10:43:34;;;;;;;2.17;0.88;;;;;;;24.70;46.93;101256.41;16133664;19;129087;-59
2022/08/04 10:49:02;;;;;;;4.40;0.95;;;;;;;24.70;47.25;101257.25;16135887;19;130470;-62
2022/08/04 10:54:50;;;;;;;5.35;1.33;;;;;;;24.71;47.12;101267.31;16130827;19;131003;-59
2022/08/04 11:00:23;;;;;;;6.88;1.27;;;;;;;24.72;47.37;101276.56;16132842;19;129879;-59
2022/08/04 11:05:51;;;;;;;4.32;1.10;;;;;;;24.72;47.24;101270.97;16135979;19;129682;-58
2022/08/04 11:11:26;;;;;;;4.97;1.10;;;;;;;24.74;47.67;101263.09;16131137;19;130083;-58
2022/08/04 11:16:54;;;;;;;6.68;1.17;;;;;;;24.74;47.63;101257.50;16136644;19;130270;-59
2022/08/04 11:22:27;;;;;;;4.95;1.10;;;;;;;24.75;47.52;101281.56;16134090;19;129780;-57
2022/08/04 11:27:58;;;;;;;5.05;1.20;;;;;;;24.78;47.68;101288.59;16140234;19;129670;-56
2022/08/04 11:33:30;;;;;;;7.18;1.83;;;;;;;24.79;47.70;101287.47;16149304;19;129418;-57
2022/08/04 11:38:53;;;;;;;4.63;1.20;;;;;;;24.82;48.06;101303.69;16150021;19;130167;-55
2022/08/04 11:44:22;;;;;;;9.95;1.88;;;;;;;24.84;48.08;101301.44;16146198;19;129426;-57
2022/08/04 11:49:49;;;;;;;8.55;1.20;;;;;;;24.85;48.13;101297.53;16144674;19;129967;-57
2022/08/04 11:55:21;;;;;;;3.97;1.45;;;;;;;24.84;47.93;101321.91;16144511;19;128968;-57
2022/08/04 12:01:24;;;;;;;4.00;1.30;;;;;;;24.84;48.04;101319.09;16142051;19;129237;-56
2022/08/04 12:06:55;;;;;;;6.95;1.67;;;;;;;24.83;47.89;101317.41;16147080;19;130870;-57
2022/08/04 12:12:57;;;;;;;6.00;1.20;;;;;;;24.85;48.13;101334.78;16142555;19;129388;-57
2022/08/04 12:18:34;;;;;;;5.50;1.35;;;;;;;24.85;47.92;101320.78;16150328;19;129309;-57
2022/08/04 12:24:02;;;;;;;7.43;1.10;;;;;;;24.85;48.13;101322.72;16146528;19;129154;-58
2022/08/04 12:29:30;;;;;;;2.75;0.90;;;;;;;24.87;48.15;101320.50;16144928;19;129910;-56
2022/08/04 12:35:02;;;;;;;6.53;1.35;;;;;;;24.91;47.96;101323.59;16145047;19;129346;-63
2022/08/04 12:40:32;;;;;;;9.80;1.45;;;;;;;24.93;47.88;101324.16;16144814;19;130450;-61
2022/08/04 12:45:59;;;;;;;5.15;1.45;;;;;;;24.93;47.85;101327.78;16145260;19;129482;-57
2022/08/04 12:51:26;;;;;;;5.28;1.35;;;;;;;24.95;48.06;101319.13;16138688;19;128992;-64
2022/08/04 12:57:11;;;;;;;3.17;1.40;;;;;;;24.95;48.14;101313.53;16144142;19;128879;-68
2022/08/04 13:02:40;;;;;;;5.55;1.40;;;;;;;24.95;48.07;101319.13;16144406;19;129769;-68
2022/08/04 13:08:03;;;;;;;3.05;1.00;;;;;;;24.94;47.99;101311.84;16143273;19;129818;-65
2022/08/04 13:13:30;;;;;;;2.72;0.90;;;;;;;24.92;47.40;101308.47;16143675;19;129588;-66
2022/08/04 13:18:52;;;;;;;4.35;1.13;;;;;;;24.92;47.63;101308.47;16143863;19;129048;-69
2022/08/04 13:24:16;;;;;;;5.13;1.15;;;;;;;24.91;47.47;101301.19;16142799;19;129166;-65
2022/08/04 13:29:54;;;;;;;4.97;1.25;;;;;;;24.91;47.26;101290.88;16139734;19;129685;-71
2022/08/04 13:35:23;;;;;;;2.72;0.90;;;;;;;24.91;47.37;101302.06;16142090;19;130345;-65
2022/08/04 13:41:07;;;;;;;5.78;1.00;;;;;;;24.90;47.42;101288.31;16141087;19;129350;-58
2022/08/04 13:46:32;;;;;;;3.90;1.03;;;;;;;24.90;47.17;101299.53;16144066;19;129795;-58
2022/08/04 13:51:57;;;;;;;2.88;0.88;;;;;;;24.90;47.26;101289.19;16137619;19;129968;-58
2022/08/04 13:57:28;;;;;;;2.78;0.80;;;;;;;24.92;46.74;101292.56;16141032;19;130102;-58
2022/08/04 14:03:06;;;;;;;1.05;0.60;;;;;;;24.92;47.07;101291.69;16141309;19;132152;-57
2022/08/04 14:08:49;;;;;;;4.03;1.17;;;;;;;24.92;46.87;101291.69;16139184;19;129116;-58
2022/08/04 14:14:28;;;;;;;2.00;0.85;;;;;;;24.91;46.79;101293.66;16141558;19;129995;-57
2022/08/04 14:20:00;;;;;;;3.60;1.00;;;;;;;24.90;46.53;101291.13;16140585;19;129408;-56
2022/08/04 14:25:22;;;;;;;6.05;1.48;;;;;;;24.95;46.64;101291.97;16139847;19;129606;-56
2022/08/04 14:31:14;;;;;;;4.72;1.40;;;;;;;25.01;46.35;101290.00;16136745;19;129030;-55
2022/08/04 14:36:43;;;;;;;5.22;1.60;;;;;;;25.04;46.19;101286.66;16137347;19;129862;-56
2022/08/04 14:42:47;;;;;;;9.25;1.77;;;;;;;25.08;45.85;101270.13;16135246;19;130429;-56
2022/08/04 14:48:16;;;;;;;6.35;2.00;;;;;;;25.08;46.09;101270.97;16137115;19;129161;-56
2022/08/04 14:53:38;;;;;;;5.32;2.28;;;;;;;25.10;46.05;101265.94;16132537;19;130351;-56
2022/08/04 14:59:07;;;;;;;10.65;2.25;;;;;;;25.12;45.89;101269.25;16135875;19;129564;-57
2022/08/04 15:04:30;;;;;;;11.25;1.85;;;;;;;25.15;45.55;101260.31;16133088;19;128902;-56
2022/08/04 15:09:53;;;;;;;10.50;2.33;;;;;;;25.16;45.72;101259.19;16133687;19;129543;-55
2022/08/04 15:15:15;;;;;;;7.03;1.88;;;;;;;25.18;46.09;101256.94;16129888;19;129066;-55
2022/08/04 15:20:58;;;;;;;11.30;2.15;;;;;;;25.19;45.67;101254.97;16137300;19;130672;-54
2022/08/04 15:26:58;;;;;;;6.55;2.40;;;;;;;25.19;45.72;101254.97;16135418;19;129421;-56
2022/08/04 15:32:27;;;;;;;4.85;1.95;;;;;;;25.18;45.76;101250.50;16121390;19;129578;-56
2022/08/04 15:37:51;;;;;;;8.00;1.80;;;;;;;25.22;45.35;101245.19;16122981;19;131532;-56
2022/08/04 15:43:25;;;;;;;5.00;1.87;;;;;;;25.19;45.57;101247.44;16117364;19;129809;-58
2022/08/04 15:48:46;;;;;;;2.67;1.10;;;;;;;25.18;45.86;101242.09;16121710;19;128975;-58
2022/08/04 15:54:14;;;;;;;6.63;1.85;;;;;;;25.15;45.75;101232.31;16115906;19;129512;-57
2022/08/04 15:59:58;;;;;;;4.90;1.83;;;;;;;25.16;45.70;101236.78;16121841;19;129935;-58
2022/08/04 16:05:21;;;;;;;4.30;1.70;;;;;;;25.14;45.79;101239.03;16125870;19;130707;-58
2022/08/04 16:10:45;;;;;;;6.53;1.88;;;;;;;25.14;45.97;101243.81;16129720;19;130096;-58
2022/08/04 16:16:07;;;;;;;5.90;1.63;;;;;;;25.12;45.70;101241.28;16139042;19;129763;-58
2022/08/04 16:21:31;;;;;;;2.35;1.13;;;;;;;25.11;45.81;101236.78;16145005;19;129117;-57
2022/08/04 16:26:59;;;;;;;9.00;1.30;;;;;;;25.12;45.37;101246.88;16146127;19;129242;-58
2022/08/04 16:32:24;;;;;;;2.40;1.40;;;;;;;25.11;45.69;101239.59;16140007;19;130189;-58
2022/08/04 16:37:47;;;;;;;3.20;1.63;;;;;;;25.10;45.69;101232.34;16146163;19;130184;-57
2022/08/04 16:43:15;;;;;;;6.07;1.00;;;;;;;25.11;45.68;101245.19;16143710;19;129447;-58
2022/08/04 16:48:36;;;;;;;3.22;1.30;;;;;;;25.12;45.48;101251.63;16146104;19;129319;-57
2022/08/04 16:54:02;;;;;;;3.67;1.08;;;;;;;25.12;45.51;101246.88;16140203;19;129766;-57
2022/08/04 16:59:26;;;;;;;1.75;1.00;;;;;;;25.13;45.27;101244.94;16143243;19;129739;-58
2022/08/04 17:04:48;;;;;;;2.35;1.02;;;;;;;25.11;45.51;101242.38;16143809;19;128887;-58
2022/08/04 17:10:39;;;;;;;4.85;1.15;;;;;;;25.11;45.28;101247.97;16142131;19;130207;-57
2022/08/04 17:16:07;;;;;;;4.53;1.20;;;;;;;25.11;45.48;101244.38;16142229;19;129986;-57
2022/08/04 17:21:35;;;;;;;9.65;1.60;;;;;;;25.09;45.45;101241.84;16139616;19;129270;-57
2022/08/04 17:26:57;;;;;;;17.88;2.15;;;;;;;25.16;45.31;101235.97;16138390;19;129605;-58
2022/08/04 17:32:20;;;;;;;7.55;1.40;;;;;;;25.22;45.38;101234.81;16137597;19;129020;-58
2022/08/04 17:37:44;;;;;;;6.37;1.33;;;;;;;25.26;45.46;101241.53;16141292;19;129950;-59
2022/08/04 17:43:13;;;;;;;12.63;3.65;;;;;;;25.28;45.20;101238.44;16138901;19;129460;-59
2022/08/04 17:49:05;;;;;;;20.30;5.80;;;;;;;25.31;45.98;101247.09;16135560;19;129807;-57
2022/08/04 17:54:26;;;;;;;17.13;5.63;;;;;;;25.34;46.08;101259.72;16134699;19;129662;-59
2022/08/04 17:59:58;;;;;;;18.60;4.82;;;;;;;25.39;46.26;101272.84;16139277;19;129832;-58
2022/08/04 18:05:29;;;;;;;17.98;4.07;;;;;;;25.43;46.05;101290.75;16141247;19;130099;-58
2022/08/04 18:11:18;;;;;;;17.08;3.58;;;;;;;25.47;46.22;101298.34;16137783;19;129713;-58
2022/08/04 18:16:46;;;;;;;27.80;6.60;;;;;;;25.47;46.66;101309.53;16139634;19;130703;-59
2022/08/04 18:22:07;;;;;;;25.92;6.97;;;;;;;25.48;46.29;101315.97;16136796;19;129904;-57
2022/08/04 18:27:55;;;;;;;15.10;5.75;;;;;;;25.47;46.22;101331.94;16134331;19;129590;-58
2022/08/04 18:33:17;;;;;;;15.40;4.70;;;;;;;25.40;45.84;101336.97;16133639;19;130271;-57
2022/08/04 18:39:00;;;;;;;9.93;3.88;;;;;;;25.35;45.21;101351.00;16137767;19;131205;-58
2022/08/04 18:44:36;;;;;;;9.40;3.33;;;;;;;25.31;45.46;101372.28;16137049;19;129454;-58
2022/08/04 18:50:14;;;;;;;5.80;2.20;;;;;;;25.26;45.12;101373.13;16135570;19;129058;-57
2022/08/04 18:55:55;;;;;;;6.63;2.60;;;;;;;25.23;44.94;101387.69;16138919;19;129257;-57
2022/08/04 19:01:18;;;;;;;7.28;2.33;;;;;;;25.17;45.11;101406.47;16142340;19;130230;-56
2022/08/04 19:06:40;;;;;;;6.90;2.00;;;;;;;24.93;44.96;101422.94;16139477;19;131640;-56
2022/08/04 19:12:05;;;;;;;7.20;1.80;;;;;;;24.84;45.17;101422.63;16166956;19;128770;-56
2022/08/04 19:17:28;;;;;;;18.80;2.22;;;;;;;24.79;44.96;101432.97;16192574;19;129924;-60
2022/08/04 19:23:09;;;;;;;12.70;2.10;;;;;;;24.74;45.08;101447.78;16168119;19;131096;-56
2022/08/04 19:28:51;;;;;;;20.63;2.55;;;;;;;24.72;44.67;101450.03;16130821;19;129786;-57
2022/08/04 19:34:13;;;;;;;10.48;2.15;;;;;;;24.69;44.88;101444.97;16130636;19;129334;-50
2022/08/04 19:39:35;;;;;;;12.88;2.05;;;;;;;24.68;44.47;101448.88;16125549;19;130114;-54
2022/08/04 19:45:01;;;;;;;9.68;2.35;;;;;;;24.62;44.32;101463.97;16126058;19;129882;-52
2022/08/04 19:50:23;;;;;;;10.63;1.90;;;;;;;24.57;44.14;101476.84;16137045;19;130552;-53
2022/08/04 19:55:45;;;;;;;10.60;1.90;;;;;;;24.57;43.98;101485.22;16146701;19;128934;-55
2022/08/04 20:01:12;;;;;;;6.07;1.67;;;;;;;24.62;44.29;101489.13;16147776;19;129699;-58
2022/08/04 20:06:54;;;;;;;6.40;2.00;;;;;;;24.63;44.48;101479.63;16143528;19;129473;-55
2022/08/04 20:12:17;;;;;;;10.68;2.50;;;;;;;24.61;44.85;101487.50;16145900;19;130577;-55
2022/08/04 20:17:40;;;;;;;10.63;2.08;;;;;;;24.58;45.36;101495.31;16147401;19;129993;-54
2022/08/04 20:23:22;;;;;;;13.00;2.17;;;;;;;24.51;45.95;101494.69;16145258;19;129717;-55
2022/08/04 20:29:04;;;;;;;11.63;3.00;;;;;;;24.49;46.23;101498.91;16139546;19;130512;-56
2022/08/04 20:34:27;;;;;;;12.88;2.50;;;;;;;24.60;46.32;101489.44;16135172;19;130240;-52
2022/08/04 20:39:59;;;;;;;10.65;2.00;;;;;;;24.68;46.30;101437.69;16139206;19;129639;-52
2022/08/04 20:45:21;;;;;;;8.40;2.45;;;;;;;24.72;46.46;101386.50;16143671;19;129551;-54
2022/08/04 20:50:45;;;;;;;10.10;2.22;;;;;;;24.77;46.51;101452.81;16138246;19;130023;-53
2022/08/04 20:56:07;;;;;;;9.70;1.80;;;;;;;24.80;46.62;101457.06;16136950;19;129398;-54
2022/08/04 21:01:39;;;;;;;8.38;1.85;;;;;;;24.82;46.80;101458.44;16137674;19;129853;-55
2022/08/04 21:07:10;;;;;;;5.72;1.58;;;;;;;24.82;47.28;101399.69;16140892;19;131038;-53
2022/08/04 21:12:37;;;;;;;6.15;1.70;;;;;;;24.81;47.34;101398.00;16139301;19;129604;-54
2022/08/04 21:17:59;;;;;;;3.97;1.50;;;;;;;24.82;47.43;101465.97;16139559;19;129293;-54
2022/08/04 21:23:25;;;;;;;6.75;1.63;;;;;;;24.82;47.47;101466.84;16137128;19;129574;-53
2022/08/04 21:28:47;;;;;;;3.40;1.40;;;;;;;24.82;47.89;101466.84;16137715;19;129248;-52
2022/08/04 21:34:12;;;;;;;2.90;1.00;;;;;;;24.82;47.91;101450.06;16132317;19;129116;-50
2022/08/04 21:39:54;;;;;;;3.97;1.25;;;;;;;24.80;48.15;101441.09;16138647;19;130201;-53
2022/08/04 21:45:35;;;;;;;2.75;1.20;;;;;;;24.80;48.18;101426.28;16135907;19;129456;-57
2022/08/04 21:51:15;;;;;;;3.33;1.27;;;;;;;24.80;48.16;101429.91;16134971;19;130103;-55
2022/08/04 21:56:56;;;;;;;4.05;1.10;;;;;;;24.78;48.55;101412.53;16137756;19;129435;-53
2022/08/04 22:02:23;;;;;;;4.28;1.00;;;;;;;24.78;48.55;101380.94;16136448;19;130988;-55
2022/08/04 22:07:46;;;;;;;2.30;1.00;;;;;;;24.74;48.42;101372.22;16135798;19;129948;-55
2022/08/04 22:13:27;;;;;;;3.22;1.13;;;;;;;24.75;48.86;101382.31;16131981;19;130034;-54
2022/08/04 22:19:09;;;;;;;2.55;1.20;;;;;;;24.73;48.80;101402.19;16137757;19;129766;-54
2022/08/04 22:24:31;;;;;;;2.38;0.70;;;;;;;24.72;49.25;101422.88;16132684;19;131672;-53
2022/08/04 22:29:53;;;;;;;3.10;1.42;;;;;;;24.73;49.05;101430.16;16135337;19;129734;-55
2022/08/04 22:35:16;;;;;;;1.55;0.65;;;;;;;24.73;48.98;101426.53;16131805;19;129477;-55
2022/08/04 22:40:59;;;;;;;1.75;0.60;;;;;;;24.74;49.01;101431.00;16133632;19;129355;-55
2022/08/04 22:46:26;;;;;;;0.63;0.55;;;;;;;24.72;48.98;101425.69;16134442;19;129767;-54
2022/08/04 22:51:47;;;;;;;2.22;0.70;;;;;;;24.71;49.70;101431.56;16131978;19;129499;-53
2022/08/04 22:57:11;;;;;;;1.80;0.60;;;;;;;24.71;49.47;101434.38;16133694;19;129506;-54
2022/08/04 23:02:34;;;;;;;3.22;0.80;;;;;;;24.68;49.60;101421.75;16128185;19;130272;-54
2022/08/04 23:07:56;;;;;;;1.98;0.70;;;;;;;24.69;49.24;101428.19;16133294;19;129513;-52
2022/08/04 23:13:24;;;;;;;1.08;0.45;;;;;;;24.69;49.58;101423.44;16131440;19;129355;-51
2022/08/04 23:18:46;;;;;;;1.27;0.57;;;;;;;24.69;49.69;101406.63;16130324;19;129175;-55
2022/08/04 23:24:09;;;;;;;1.23;0.70;;;;;;;24.68;49.85;101412.53;16136000;19;129485;-53
2022/08/04 23:29:33;;;;;;;4.30;0.68;;;;;;;24.68;49.80;101412.53;16149187;19;129282;-54
2022/08/04 23:35:15;;;;;;;3.53;0.45;;;;;;;24.67;50.04;101416.44;16142026;19;129216;-55
2022/08/04 23:40:37;;;;;;;0.80;0.60;;;;;;;24.67;50.06;101413.63;16146919;19;130741;-55
2022/08/04 23:46:11;;;;;;;1.27;0.57;;;;;;;24.67;50.05;101402.44;16145557;19;130212;-54
2022/08/04 23:51:33;;;;;;;1.08;0.50;;;;;;;24.66;49.86;101411.94;16143400;19;130848;-54
2022/08/04 23:56:56;;;;;;;2.85;0.70;;;;;;;24.66;50.11;101395.16;16146299;19;129354;-55
